ΕΜΥ, Εθνική Μετεωρολογική Υπηρεσία - Δελτία Καιρού, Προγνώσεις

ΑΕΡΟΝΑΥΤΙΛΙΑ

GREEK AIRPORTS CODES

LGNX 171050Z 21008KT 9999 FEW025 11/02 Q1024=

EUROPEAN AIRPORTS CODES

LFPO 171530Z 32004KT 9999 BKN017 07/05 Q1038 TEMPO BKN012=